sensor_id;sensor_type;location;lat;lon;timestamp;P1;durP1;ratioP1;P2;durP2;ratioP2
49502;SDS011;35409;48.776;9.204;2023-04-24T00:02:03;0.63;;;0.60;;
49502;SDS011;35409;48.776;9.204;2023-04-24T00:04:31;2.13;;;0.77;;
49502;SDS011;35409;48.776;9.204;2023-04-24T00:06:57;1.27;;;0.50;;
49502;SDS011;35409;48.776;9.204;2023-04-24T00:09:24;1.20;;;0.68;;
49502;SDS011;35409;48.776;9.204;2023-04-24T00:11:50;2.75;;;0.50;;
49502;SDS011;35409;48.776;9.204;2023-04-24T00:14:17;1.50;;;0.65;;
49502;SDS011;35409;48.776;9.204;2023-04-24T00:16:42;1.80;;;0.50;;
49502;SDS011;35409;48.776;9.204;2023-04-24T00:19:08;1.63;;;0.80;;
49502;SDS011;35409;48.776;9.204;2023-04-24T00:21:34;1.42;;;0.52;;
49502;SDS011;35409;48.776;9.204;2023-04-24T00:24:00;1.38;;;0.57;;
49502;SDS011;35409;48.776;9.204;2023-04-24T00:26:25;2.70;;;1.30;;
49502;SDS011;35409;48.776;9.204;2023-04-24T00:28:51;1.40;;;0.50;;
49502;SDS011;35409;48.776;9.204;2023-04-24T00:31:16;3.05;;;0.70;;
49502;SDS011;35409;48.776;9.204;2023-04-24T00:33:42;1.00;;;0.65;;
49502;SDS011;35409;48.776;9.204;2023-04-24T00:36:08;1.85;;;0.85;;
49502;SDS011;35409;48.776;9.204;2023-04-24T00:38:34;1.60;;;0.55;;
49502;SDS011;35409;48.776;9.204;2023-04-24T00:40:59;2.45;;;0.40;;
49502;SDS011;35409;48.776;9.204;2023-04-24T00:43:25;2.53;;;0.60;;
49502;SDS011;35409;48.776;9.204;2023-04-24T00:45:51;1.55;;;0.52;;
49502;SDS011;35409;48.776;9.204;2023-04-24T00:48:16;1.13;;;0.70;;
49502;SDS011;35409;48.776;9.204;2023-04-24T00:50:42;1.17;;;0.35;;
49502;SDS011;35409;48.776;9.204;2023-04-24T00:53:08;2.10;;;0.65;;
49502;SDS011;35409;48.776;9.204;2023-04-24T00:55:34;1.13;;;0.50;;
49502;SDS011;35409;48.776;9.204;2023-04-24T00:58:02;3.17;;;0.70;;
49502;SDS011;35409;48.776;9.204;2023-04-24T01:00:28;1.38;;;0.60;;
49502;SDS011;35409;48.776;9.204;2023-04-24T01:02:54;3.33;;;0.50;;
49502;SDS011;35409;48.776;9.204;2023-04-24T01:05:20;3.42;;;0.70;;
49502;SDS011;35409;48.776;9.204;2023-04-24T01:07:46;3.72;;;1.13;;
49502;SDS011;35409;48.776;9.204;2023-04-24T01:10:14;0.75;;;0.57;;
49502;SDS011;35409;48.776;9.204;2023-04-24T01:12:40;1.80;;;0.50;;
49502;SDS011;35409;48.776;9.204;2023-04-24T01:15:06;1.38;;;0.63;;
49502;SDS011;35409;48.776;9.204;2023-04-24T01:17:32;1.75;;;0.40;;
49502;SDS011;35409;48.776;9.204;2023-04-24T01:19:58;1.40;;;0.77;;
49502;SDS011;35409;48.776;9.204;2023-04-24T01:22:25;1.35;;;0.70;;
49502;SDS011;35409;48.776;9.204;2023-04-24T01:24:51;1.25;;;0.60;;
49502;SDS011;35409;48.776;9.204;2023-04-24T01:27:18;2.47;;;0.50;;
49502;SDS011;35409;48.776;9.204;2023-04-24T01:29:44;1.52;;;0.70;;
49502;SDS011;35409;48.776;9.204;2023-04-24T01:32:10;1.02;;;0.57;;
49502;SDS011;35409;48.776;9.204;2023-04-24T01:34:37;1.77;;;0.60;;
49502;SDS011;35409;48.776;9.204;2023-04-24T01:37:03;1.58;;;0.50;;
49502;SDS011;35409;48.776;9.204;2023-04-24T01:39:30;1.52;;;0.70;;
49502;SDS011;35409;48.776;9.204;2023-04-24T01:41:55;1.23;;;0.82;;
49502;SDS011;35409;48.776;9.204;2023-04-24T01:44:21;0.85;;;0.50;;
49502;SDS011;35409;48.776;9.204;2023-04-24T01:46:47;3.10;;;0.60;;
49502;SDS011;35409;48.776;9.204;2023-04-24T01:49:13;2.10;;;0.70;;
49502;SDS011;35409;48.776;9.204;2023-04-24T01:51:39;3.70;;;0.50;;
49502;SDS011;35409;48.776;9.204;2023-04-24T01:54:04;1.20;;;0.50;;
49502;SDS011;35409;48.776;9.204;2023-04-24T01:56:31;3.22;;;0.82;;
49502;SDS011;35409;48.776;9.204;2023-04-24T01:59:00;3.35;;;0.60;;
49502;SDS011;35409;48.776;9.204;2023-04-24T02:01:32;2.35;;;0.65;;
49502;SDS011;35409;48.776;9.204;2023-04-24T02:04:00;2.53;;;0.60;;
49502;SDS011;35409;48.776;9.204;2023-04-24T02:06:26;2.10;;;0.77;;
49502;SDS011;35409;48.776;9.204;2023-04-24T02:08:52;2.70;;;1.02;;
49502;SDS011;35409;48.776;9.204;2023-04-24T02:11:18;0.85;;;0.60;;
49502;SDS011;35409;48.776;9.204;2023-04-24T02:13:44;1.88;;;0.60;;
49502;SDS011;35409;48.776;9.204;2023-04-24T02:16:09;1.00;;;0.60;;
49502;SDS011;35409;48.776;9.204;2023-04-24T02:18:35;0.95;;;0.40;;
49502;SDS011;35409;48.776;9.204;2023-04-24T02:21:00;2.03;;;0.60;;
49502;SDS011;35409;48.776;9.204;2023-04-24T02:23:26;2.85;;;0.70;;
49502;SDS011;35409;48.776;9.204;2023-04-24T02:25:52;1.38;;;0.55;;
49502;SDS011;35409;48.776;9.204;2023-04-24T02:28:18;0.80;;;0.40;;
49502;SDS011;35409;48.776;9.204;2023-04-24T02:30:44;2.63;;;0.40;;
49502;SDS011;35409;48.776;9.204;2023-04-24T02:33:10;1.98;;;0.60;;
49502;SDS011;35409;48.776;9.204;2023-04-24T02:35:36;1.77;;;0.60;;
49502;SDS011;35409;48.776;9.204;2023-04-24T02:38:02;1.48;;;0.47;;
49502;SDS011;35409;48.776;9.204;2023-04-24T02:40:28;0.80;;;0.60;;
49502;SDS011;35409;48.776;9.204;2023-04-24T02:42:54;2.10;;;0.70;;
49502;SDS011;35409;48.776;9.204;2023-04-24T02:45:19;1.58;;;0.45;;
49502;SDS011;35409;48.776;9.204;2023-04-24T02:47:45;1.75;;;0.57;;
49502;SDS011;35409;48.776;9.204;2023-04-24T02:50:10;0.65;;;0.50;;
49502;SDS011;35409;48.776;9.204;2023-04-24T02:52:36;1.13;;;0.47;;
49502;SDS011;35409;48.776;9.204;2023-04-24T02:55:02;2.83;;;0.70;;
49502;SDS011;35409;48.776;9.204;2023-04-24T02:57:29;1.33;;;0.73;;
49502;SDS011;35409;48.776;9.204;2023-04-24T02:59:56;2.20;;;0.80;;
49502;SDS011;35409;48.776;9.204;2023-04-24T03:02:21;1.50;;;0.65;;
49502;SDS011;35409;48.776;9.204;2023-04-24T03:04:50;2.45;;;0.90;;
49502;SDS011;35409;48.776;9.204;2023-04-24T03:07:18;1.02;;;0.57;;
49502;SDS011;35409;48.776;9.204;2023-04-24T03:09:45;3.08;;;0.47;;
49502;SDS011;35409;48.776;9.204;2023-04-24T03:12:11;5.57;;;1.13;;
49502;SDS011;35409;48.776;9.204;2023-04-24T03:14:37;3.20;;;0.70;;
49502;SDS011;35409;48.776;9.204;2023-04-24T03:17:03;1.70;;;0.70;;
49502;SDS011;35409;48.776;9.204;2023-04-24T03:19:29;3.10;;;0.50;;
49502;SDS011;35409;48.776;9.204;2023-04-24T03:21:55;2.60;;;0.70;;
49502;SDS011;35409;48.776;9.204;2023-04-24T03:24:21;1.20;;;0.47;;
49502;SDS011;35409;48.776;9.204;2023-04-24T03:26:47;1.45;;;0.60;;
49502;SDS011;35409;48.776;9.204;2023-04-24T03:29:13;1.83;;;0.50;;
49502;SDS011;35409;48.776;9.204;2023-04-24T03:31:39;3.30;;;1.00;;
49502;SDS011;35409;48.776;9.204;2023-04-24T03:34:05;0.93;;;0.60;;
49502;SDS011;35409;48.776;9.204;2023-04-24T03:36:32;2.60;;;0.70;;
49502;SDS011;35409;48.776;9.204;2023-04-24T03:38:58;1.60;;;0.70;;
49502;SDS011;35409;48.776;9.204;2023-04-24T03:41:24;0.68;;;0.47;;
49502;SDS011;35409;48.776;9.204;2023-04-24T03:43:49;3.22;;;1.08;;
49502;SDS011;35409;48.776;9.204;2023-04-24T03:46:15;2.20;;;0.70;;
49502;SDS011;35409;48.776;9.204;2023-04-24T03:48:41;1.13;;;0.80;;
49502;SDS011;35409;48.776;9.204;2023-04-24T03:51:07;2.75;;;0.70;;
49502;SDS011;35409;48.776;9.204;2023-04-24T03:53:33;2.67;;;0.85;;
49502;SDS011;35409;48.776;9.204;2023-04-24T03:55:59;1.88;;;0.77;;
49502;SDS011;35409;48.776;9.204;2023-04-24T03:58:25;1.85;;;0.93;;
49502;SDS011;35409;48.776;9.204;2023-04-24T04:00:51;2.47;;;0.70;;
49502;SDS011;35409;48.776;9.204;2023-04-24T04:03:17;2.10;;;0.88;;
49502;SDS011;35409;48.776;9.204;2023-04-24T04:05:43;1.58;;;0.60;;
49502;SDS011;35409;48.776;9.204;2023-04-24T04:08:09;1.83;;;0.63;;
49502;SDS011;35409;48.776;9.204;2023-04-24T04:10:35;0.82;;;0.50;;
49502;SDS011;35409;48.776;9.204;2023-04-24T04:13:01;2.30;;;0.93;;
49502;SDS011;35409;48.776;9.204;2023-04-24T04:15:27;2.20;;;0.95;;
49502;SDS011;35409;48.776;9.204;2023-04-24T04:17:53;0.73;;;0.43;;
49502;SDS011;35409;48.776;9.204;2023-04-24T04:20:19;1.90;;;0.40;;
49502;SDS011;35409;48.776;9.204;2023-04-24T04:22:45;1.55;;;0.60;;
49502;SDS011;35409;48.776;9.204;2023-04-24T04:25:11;1.20;;;0.60;;
49502;SDS011;35409;48.776;9.204;2023-04-24T04:27:38;2.38;;;0.65;;
49502;SDS011;35409;48.776;9.204;2023-04-24T04:30:06;1.02;;;0.73;;
49502;SDS011;35409;48.776;9.204;2023-04-24T04:32:33;1.40;;;0.47;;
49502;SDS011;35409;48.776;9.204;2023-04-24T04:35:00;1.63;;;0.50;;
49502;SDS011;35409;48.776;9.204;2023-04-24T04:37:29;0.75;;;0.75;;
49502;SDS011;35409;48.776;9.204;2023-04-24T04:39:56;0.55;;;0.52;;
49502;SDS011;35409;48.776;9.204;2023-04-24T04:42:23;4.28;;;1.02;;
49502;SDS011;35409;48.776;9.204;2023-04-24T04:44:49;2.97;;;0.80;;
49502;SDS011;35409;48.776;9.204;2023-04-24T04:47:15;1.38;;;0.98;;
49502;SDS011;35409;48.776;9.204;2023-04-24T04:49:42;1.65;;;0.80;;
49502;SDS011;35409;48.776;9.204;2023-04-24T04:52:08;1.63;;;0.80;;
49502;SDS011;35409;48.776;9.204;2023-04-24T04:54:34;1.35;;;0.80;;
49502;SDS011;35409;48.776;9.204;2023-04-24T04:57:00;0.90;;;0.90;;
49502;SDS011;35409;48.776;9.204;2023-04-24T04:59:26;1.77;;;1.27;;
49502;SDS011;35409;48.776;9.204;2023-04-24T05:01:52;1.45;;;0.90;;
49502;SDS011;35409;48.776;9.204;2023-04-24T05:04:17;1.10;;;1.00;;
49502;SDS011;35409;48.776;9.204;2023-04-24T05:06:43;1.70;;;0.80;;
49502;SDS011;35409;48.776;9.204;2023-04-24T05:09:09;1.30;;;1.17;;
49502;SDS011;35409;48.776;9.204;2023-04-24T05:11:35;1.38;;;1.27;;
49502;SDS011;35409;48.776;9.204;2023-04-24T05:14:00;1.63;;;1.10;;
49502;SDS011;35409;48.776;9.204;2023-04-24T05:16:26;1.83;;;1.30;;
49502;SDS011;35409;48.776;9.204;2023-04-24T05:18:52;0.73;;;0.70;;
49502;SDS011;35409;48.776;9.204;2023-04-24T05:21:17;1.75;;;1.05;;
49502;SDS011;35409;48.776;9.204;2023-04-24T05:23:43;4.03;;;1.00;;
49502;SDS011;35409;48.776;9.204;2023-04-24T05:26:08;2.50;;;1.10;;
49502;SDS011;35409;48.776;9.204;2023-04-24T05:28:34;1.20;;;1.10;;
49502;SDS011;35409;48.776;9.204;2023-04-24T05:31:01;1.27;;;0.90;;
49502;SDS011;35409;48.776;9.204;2023-04-24T05:33:27;1.65;;;1.10;;
49502;SDS011;35409;48.776;9.204;2023-04-24T05:35:53;1.23;;;1.13;;
49502;SDS011;35409;48.776;9.204;2023-04-24T05:38:19;1.98;;;0.95;;
49502;SDS011;35409;48.776;9.204;2023-04-24T05:40:45;1.30;;;1.13;;
49502;SDS011;35409;48.776;9.204;2023-04-24T05:43:11;3.03;;;1.10;;
49502;SDS011;35409;48.776;9.204;2023-04-24T05:45:37;1.83;;;1.20;;
49502;SDS011;35409;48.776;9.204;2023-04-24T05:48:03;3.10;;;1.10;;
49502;SDS011;35409;48.776;9.204;2023-04-24T05:50:29;2.28;;;1.17;;
49502;SDS011;35409;48.776;9.204;2023-04-24T05:52:55;1.77;;;1.20;;
49502;SDS011;35409;48.776;9.204;2023-04-24T05:55:23;1.77;;;1.23;;
49502;SDS011;35409;48.776;9.204;2023-04-24T05:57:49;1.67;;;1.17;;
49502;SDS011;35409;48.776;9.204;2023-04-24T06:00:15;2.35;;;1.23;;
49502;SDS011;35409;48.776;9.204;2023-04-24T06:02:42;1.60;;;1.08;;
49502;SDS011;35409;48.776;9.204;2023-04-24T06:05:08;2.95;;;1.08;;
49502;SDS011;35409;48.776;9.204;2023-04-24T06:07:34;3.45;;;1.15;;
49502;SDS011;35409;48.776;9.204;2023-04-24T06:10:00;2.40;;;1.23;;
49502;SDS011;35409;48.776;9.204;2023-04-24T06:12:26;2.17;;;1.20;;
49502;SDS011;35409;48.776;9.204;2023-04-24T06:14:52;3.53;;;1.00;;
49502;SDS011;35409;48.776;9.204;2023-04-24T06:17:19;1.27;;;1.10;;
49502;SDS011;35409;48.776;9.204;2023-04-24T06:19:44;2.13;;;1.23;;
49502;SDS011;35409;48.776;9.204;2023-04-24T06:22:10;1.40;;;1.30;;
49502;SDS011;35409;48.776;9.204;2023-04-24T06:24:35;2.33;;;1.60;;
49502;SDS011;35409;48.776;9.204;2023-04-24T06:27:01;2.08;;;1.50;;
49502;SDS011;35409;48.776;9.204;2023-04-24T06:29:27;2.55;;;1.50;;
49502;SDS011;35409;48.776;9.204;2023-04-24T06:31:53;2.83;;;1.38;;
49502;SDS011;35409;48.776;9.204;2023-04-24T06:34:18;1.45;;;1.23;;
49502;SDS011;35409;48.776;9.204;2023-04-24T06:36:44;1.52;;;1.42;;
49502;SDS011;35409;48.776;9.204;2023-04-24T06:39:11;2.63;;;1.30;;
49502;SDS011;35409;48.776;9.204;2023-04-24T06:41:37;1.30;;;1.20;;
49502;SDS011;35409;48.776;9.204;2023-04-24T06:44:03;4.30;;;1.50;;
49502;SDS011;35409;48.776;9.204;2023-04-24T06:46:28;2.47;;;1.40;;
49502;SDS011;35409;48.776;9.204;2023-04-24T06:48:54;2.15;;;1.30;;
49502;SDS011;35409;48.776;9.204;2023-04-24T06:51:21;2.40;;;1.20;;
49502;SDS011;35409;48.776;9.204;2023-04-24T06:53:48;3.15;;;1.58;;
49502;SDS011;35409;48.776;9.204;2023-04-24T06:56:14;4.97;;;1.48;;
49502;SDS011;35409;48.776;9.204;2023-04-24T06:58:40;2.88;;;1.77;;
49502;SDS011;35409;48.776;9.204;2023-04-24T07:01:06;3.53;;;1.38;;
49502;SDS011;35409;48.776;9.204;2023-04-24T07:03:32;2.65;;;1.23;;
49502;SDS011;35409;48.776;9.204;2023-04-24T07:05:57;2.72;;;1.40;;
49502;SDS011;35409;48.776;9.204;2023-04-24T07:08:23;3.35;;;1.83;;
49502;SDS011;35409;48.776;9.204;2023-04-24T07:10:50;1.50;;;1.30;;
49502;SDS011;35409;48.776;9.204;2023-04-24T07:13:16;2.00;;;1.38;;
49502;SDS011;35409;48.776;9.204;2023-04-24T07:15:42;3.65;;;1.45;;
49502;SDS011;35409;48.776;9.204;2023-04-24T07:18:08;2.38;;;1.60;;
49502;SDS011;35409;48.776;9.204;2023-04-24T07:20:34;2.25;;;1.30;;
49502;SDS011;35409;48.776;9.204;2023-04-24T07:22:59;4.65;;;1.42;;
49502;SDS011;35409;48.776;9.204;2023-04-24T07:25:25;1.63;;;1.30;;
49502;SDS011;35409;48.776;9.204;2023-04-24T07:27:51;1.60;;;1.00;;
49502;SDS011;35409;48.776;9.204;2023-04-24T07:30:17;1.52;;;1.27;;
49502;SDS011;35409;48.776;9.204;2023-04-24T07:32:42;5.03;;;1.98;;
49502;SDS011;35409;48.776;9.204;2023-04-24T07:35:08;1.55;;;0.95;;
49502;SDS011;35409;48.776;9.204;2023-04-24T07:37:34;1.92;;;1.17;;
49502;SDS011;35409;48.776;9.204;2023-04-24T07:40:00;3.00;;;1.08;;
49502;SDS011;35409;48.776;9.204;2023-04-24T07:42:26;2.05;;;1.00;;
49502;SDS011;35409;48.776;9.204;2023-04-24T07:44:52;2.60;;;1.20;;
49502;SDS011;35409;48.776;9.204;2023-04-24T07:47:18;2.05;;;0.93;;
49502;SDS011;35409;48.776;9.204;2023-04-24T07:49:43;1.67;;;0.93;;
49502;SDS011;35409;48.776;9.204;2023-04-24T07:52:09;2.05;;;1.00;;
49502;SDS011;35409;48.776;9.204;2023-04-24T07:54:35;5.35;;;1.10;;
49502;SDS011;35409;48.776;9.204;2023-04-24T07:57:02;2.55;;;0.80;;
49502;SDS011;35409;48.776;9.204;2023-04-24T07:59:28;1.48;;;1.17;;
49502;SDS011;35409;48.776;9.204;2023-04-24T08:01:53;1.15;;;0.75;;
49502;SDS011;35409;48.776;9.204;2023-04-24T08:04:19;2.25;;;0.90;;
49502;SDS011;35409;48.776;9.204;2023-04-24T08:06:46;3.38;;;1.30;;
49502;SDS011;35409;48.776;9.204;2023-04-24T08:09:12;1.73;;;0.80;;
49502;SDS011;35409;48.776;9.204;2023-04-24T08:11:38;2.58;;;1.27;;
49502;SDS011;35409;48.776;9.204;2023-04-24T08:14:04;4.10;;;1.02;;
49502;SDS011;35409;48.776;9.204;2023-04-24T08:16:29;1.08;;;0.75;;
49502;SDS011;35409;48.776;9.204;2023-04-24T08:18:55;2.17;;;1.10;;
49502;SDS011;35409;48.776;9.204;2023-04-24T08:21:21;3.40;;;1.20;;
49502;SDS011;35409;48.776;9.204;2023-04-24T08:23:46;3.53;;;0.98;;
49502;SDS011;35409;48.776;9.204;2023-04-24T08:26:12;2.08;;;0.90;;
49502;SDS011;35409;48.776;9.204;2023-04-24T08:28:38;4.63;;;1.08;;
49502;SDS011;35409;48.776;9.204;2023-04-24T08:31:04;2.50;;;0.75;;
49502;SDS011;35409;48.776;9.204;2023-04-24T08:33:30;2.30;;;1.13;;
49502;SDS011;35409;48.776;9.204;2023-04-24T08:36:00;1.67;;;0.98;;
49502;SDS011;35409;48.776;9.204;2023-04-24T08:38:26;3.65;;;1.00;;
49502;SDS011;35409;48.776;9.204;2023-04-24T08:40:52;3.88;;;0.90;;
49502;SDS011;35409;48.776;9.204;2023-04-24T08:43:18;3.03;;;1.20;;
49502;SDS011;35409;48.776;9.204;2023-04-24T08:45:46;4.63;;;0.90;;
49502;SDS011;35409;48.776;9.204;2023-04-24T08:48:12;1.10;;;1.00;;
49502;SDS011;35409;48.776;9.204;2023-04-24T08:50:38;2.35;;;1.10;;
49502;SDS011;35409;48.776;9.204;2023-04-24T08:53:07;5.63;;;1.10;;
49502;SDS011;35409;48.776;9.204;2023-04-24T08:55:33;3.88;;;0.95;;
49502;SDS011;35409;48.776;9.204;2023-04-24T08:57:59;3.33;;;1.10;;
49502;SDS011;35409;48.776;9.204;2023-04-24T09:00:27;1.08;;;0.93;;
49502;SDS011;35409;48.776;9.204;2023-04-24T09:02:53;3.00;;;1.40;;
49502;SDS011;35409;48.776;9.204;2023-04-24T09:05:20;2.25;;;1.30;;
49502;SDS011;35409;48.776;9.204;2023-04-24T09:07:49;7.90;;;1.27;;
49502;SDS011;35409;48.776;9.204;2023-04-24T09:10:20;3.30;;;1.67;;
49502;SDS011;35409;48.776;9.204;2023-04-24T09:12:47;2.60;;;1.20;;
49502;SDS011;35409;48.776;9.204;2023-04-24T09:15:12;2.08;;;1.13;;
49502;SDS011;35409;48.776;9.204;2023-04-24T09:17:38;1.90;;;1.00;;
49502;SDS011;35409;48.776;9.204;2023-04-24T09:20:04;5.38;;;1.38;;
49502;SDS011;35409;48.776;9.204;2023-04-24T09:22:30;2.05;;;1.10;;
49502;SDS011;35409;48.776;9.204;2023-04-24T09:25:00;6.72;;;1.20;;
49502;SDS011;35409;48.776;9.204;2023-04-24T09:27:31;1.77;;;1.20;;
49502;SDS011;35409;48.776;9.204;2023-04-24T09:30:00;4.65;;;1.40;;
49502;SDS011;35409;48.776;9.204;2023-04-24T09:32:27;1.88;;;0.90;;
49502;SDS011;35409;48.776;9.204;2023-04-24T09:37:46;3.42;;;1.23;;
49502;SDS011;35409;48.776;9.204;2023-04-24T09:42:54;2.90;;;1.13;;
49502;SDS011;35409;48.776;9.204;2023-04-24T09:45:21;3.05;;;1.33;;
49502;SDS011;35409;48.776;9.204;2023-04-24T09:47:52;2.45;;;1.27;;
49502;SDS011;35409;48.776;9.204;2023-04-24T09:50:21;2.05;;;1.10;;
49502;SDS011;35409;48.776;9.204;2023-04-24T09:52:47;2.15;;;1.00;;
49502;SDS011;35409;48.776;9.204;2023-04-24T09:55:21;1.25;;;0.88;;
49502;SDS011;35409;48.776;9.204;2023-04-24T09:57:48;1.40;;;1.05;;
49502;SDS011;35409;48.776;9.204;2023-04-24T10:00:17;3.30;;;1.20;;
49502;SDS011;35409;48.776;9.204;2023-04-24T10:02:43;2.60;;;1.20;;
49502;SDS011;35409;48.776;9.204;2023-04-24T10:05:11;3.65;;;1.20;;
49502;SDS011;35409;48.776;9.204;2023-04-24T10:07:37;6.90;;;1.55;;
49502;SDS011;35409;48.776;9.204;2023-04-24T10:10:03;5.13;;;1.30;;
49502;SDS011;35409;48.776;9.204;2023-04-24T10:12:30;2.35;;;1.40;;
49502;SDS011;35409;48.776;9.204;2023-04-24T10:14:55;2.78;;;0.80;;
49502;SDS011;35409;48.776;9.204;2023-04-24T10:17:22;1.50;;;0.73;;
49502;SDS011;35409;48.776;9.204;2023-04-24T10:19:50;2.58;;;0.80;;
49502;SDS011;35409;48.776;9.204;2023-04-24T10:22:16;3.45;;;0.73;;
49502;SDS011;35409;48.776;9.204;2023-04-24T10:24:43;3.50;;;0.80;;
49502;SDS011;35409;48.776;9.204;2023-04-24T10:27:10;1.65;;;0.95;;
49502;SDS011;35409;48.776;9.204;2023-04-24T10:29:37;1.80;;;0.80;;
49502;SDS011;35409;48.776;9.204;2023-04-24T10:32:06;1.77;;;0.82;;
49502;SDS011;35409;48.776;9.204;2023-04-24T10:34:32;1.02;;;0.80;;
49502;SDS011;35409;48.776;9.204;2023-04-24T10:36:58;2.10;;;0.93;;
49502;SDS011;35409;48.776;9.204;2023-04-24T10:39:23;1.92;;;1.00;;
49502;SDS011;35409;48.776;9.204;2023-04-24T10:41:49;3.33;;;1.25;;
49502;SDS011;35409;48.776;9.204;2023-04-24T10:44:15;0.90;;;0.90;;
49502;SDS011;35409;48.776;9.204;2023-04-24T10:46:45;1.98;;;0.80;;
49502;SDS011;35409;48.776;9.204;2023-04-24T10:49:14;1.80;;;1.02;;
49502;SDS011;35409;48.776;9.204;2023-04-24T10:51:47;1.17;;;0.93;;
49502;SDS011;35409;48.776;9.204;2023-04-24T10:54:27;1.10;;;0.60;;
49502;SDS011;35409;48.776;9.204;2023-04-24T10:59:45;1.63;;;1.05;;
49502;SDS011;35409;48.776;9.204;2023-04-24T11:02:15;1.40;;;0.90;;
49502;SDS011;35409;48.776;9.204;2023-04-24T11:04:41;0.77;;;0.77;;
49502;SDS011;35409;48.776;9.204;2023-04-24T11:07:10;2.40;;;1.02;;
49502;SDS011;35409;48.776;9.204;2023-04-24T11:09:36;1.92;;;0.90;;
49502;SDS011;35409;48.776;9.204;2023-04-24T11:12:11;3.28;;;0.98;;
49502;SDS011;35409;48.776;9.204;2023-04-24T11:17:36;1.25;;;0.77;;
49502;SDS011;35409;48.776;9.204;2023-04-24T11:20:16;1.42;;;0.98;;
49502;SDS011;35409;48.776;9.204;2023-04-24T11:22:43;4.07;;;1.10;;
49502;SDS011;35409;48.776;9.204;2023-04-24T11:25:09;3.03;;;1.23;;
49502;SDS011;35409;48.776;9.204;2023-04-24T11:27:40;5.38;;;1.02;;
49502;SDS011;35409;48.776;9.204;2023-04-24T11:30:08;1.35;;;0.80;;
49502;SDS011;35409;48.776;9.204;2023-04-24T11:32:47;2.30;;;1.00;;
49502;SDS011;35409;48.776;9.204;2023-04-24T11:35:23;0.90;;;0.80;;
49502;SDS011;35409;48.776;9.204;2023-04-24T11:37:50;0.73;;;0.60;;
49502;SDS011;35409;48.776;9.204;2023-04-24T11:40:18;1.42;;;0.77;;
49502;SDS011;35409;48.776;9.204;2023-04-24T11:42:46;1.60;;;1.20;;
49502;SDS011;35409;48.776;9.204;2023-04-24T11:45:23;3.83;;;1.10;;
49502;SDS011;35409;48.776;9.204;2023-04-24T11:47:49;2.33;;;0.95;;
49502;SDS011;35409;48.776;9.204;2023-04-24T11:50:15;3.55;;;1.00;;
49502;SDS011;35409;48.776;9.204;2023-04-24T11:52:47;2.30;;;1.00;;
49502;SDS011;35409;48.776;9.204;2023-04-24T11:57:39;1.20;;;0.70;;
49502;SDS011;35409;48.776;9.204;2023-04-24T12:00:14;0.75;;;0.73;;
49502;SDS011;35409;48.776;9.204;2023-04-24T12:02:44;1.45;;;0.90;;
49502;SDS011;35409;48.776;9.204;2023-04-24T12:05:22;1.25;;;0.73;;
49502;SDS011;35409;48.776;9.204;2023-04-24T12:07:52;4.85;;;1.02;;
49502;SDS011;35409;48.776;9.204;2023-04-24T12:10:21;1.70;;;0.95;;
49502;SDS011;35409;48.776;9.204;2023-04-24T12:12:47;2.43;;;0.97;;
49502;SDS011;35409;48.776;9.204;2023-04-24T12:15:15;3.60;;;1.23;;
49502;SDS011;35409;48.776;9.204;2023-04-24T12:17:41;0.80;;;0.70;;
49502;SDS011;35409;48.776;9.204;2023-04-24T12:20:08;2.65;;;0.90;;
49502;SDS011;35409;48.776;9.204;2023-04-24T12:22:44;1.65;;;1.00;;
49502;SDS011;35409;48.776;9.204;2023-04-24T12:25:11;2.15;;;1.13;;
49502;SDS011;35409;48.776;9.204;2023-04-24T12:27:37;0.88;;;0.73;;
49502;SDS011;35409;48.776;9.204;2023-04-24T12:30:04;1.00;;;0.90;;
49502;SDS011;35409;48.776;9.204;2023-04-24T12:32:30;5.20;;;1.00;;
49502;SDS011;35409;48.776;9.204;2023-04-24T12:34:57;4.45;;;1.10;;
49502;SDS011;35409;48.776;9.204;2023-04-24T12:37:25;1.63;;;1.02;;
49502;SDS011;35409;48.776;9.204;2023-04-24T12:40:07;4.95;;;1.35;;
49502;SDS011;35409;48.776;9.204;2023-04-24T12:42:35;4.07;;;1.10;;
49502;SDS011;35409;48.776;9.204;2023-04-24T12:45:07;1.58;;;0.93;;
49502;SDS011;35409;48.776;9.204;2023-04-24T12:47:33;2.17;;;1.20;;
49502;SDS011;35409;48.776;9.204;2023-04-24T12:49:59;2.10;;;1.05;;
49502;SDS011;35409;48.776;9.204;2023-04-24T12:52:26;1.33;;;0.98;;
49502;SDS011;35409;48.776;9.204;2023-04-24T12:54:54;3.95;;;0.93;;
49502;SDS011;35409;48.776;9.204;2023-04-24T12:57:21;2.83;;;1.05;;
49502;SDS011;35409;48.776;9.204;2023-04-24T12:59:47;1.48;;;1.02;;
49502;SDS011;35409;48.776;9.204;2023-04-24T13:02:13;1.60;;;0.80;;
49502;SDS011;35409;48.776;9.204;2023-04-24T13:04:42;3.60;;;0.95;;
49502;SDS011;35409;48.776;9.204;2023-04-24T13:07:14;1.85;;;0.93;;
49502;SDS011;35409;48.776;9.204;2023-04-24T13:09:41;1.92;;;0.70;;
49502;SDS011;35409;48.776;9.204;2023-04-24T13:12:07;0.77;;;0.77;;
49502;SDS011;35409;48.776;9.204;2023-04-24T13:14:34;4.35;;;1.17;;
49502;SDS011;35409;48.776;9.204;2023-04-24T13:17:00;1.98;;;1.08;;
49502;SDS011;35409;48.776;9.204;2023-04-24T13:19:26;0.77;;;0.70;;
49502;SDS011;35409;48.776;9.204;2023-04-24T13:21:52;1.02;;;0.90;;
49502;SDS011;35409;48.776;9.204;2023-04-24T13:24:22;1.50;;;1.00;;
49502;SDS011;35409;48.776;9.204;2023-04-24T13:26:54;1.35;;;0.80;;
49502;SDS011;35409;48.776;9.204;2023-04-24T13:29:19;2.25;;;1.00;;
49502;SDS011;35409;48.776;9.204;2023-04-24T13:31:51;1.30;;;1.10;;
49502;SDS011;35409;48.776;9.204;2023-04-24T13:34:22;4.05;;;0.93;;
49502;SDS011;35409;48.776;9.204;2023-04-24T13:36:52;1.83;;;1.08;;
49502;SDS011;35409;48.776;9.204;2023-04-24T13:39:19;2.17;;;1.30;;
49502;SDS011;35409;48.776;9.204;2023-04-24T13:41:45;2.67;;;1.00;;
49502;SDS011;35409;48.776;9.204;2023-04-24T13:44:13;1.90;;;1.25;;
49502;SDS011;35409;48.776;9.204;2023-04-24T13:46:39;1.85;;;1.17;;
49502;SDS011;35409;48.776;9.204;2023-04-24T13:49:04;1.25;;;1.10;;
49502;SDS011;35409;48.776;9.204;2023-04-24T13:51:30;1.67;;;0.98;;
49502;SDS011;35409;48.776;9.204;2023-04-24T13:53:55;1.95;;;1.25;;
49502;SDS011;35409;48.776;9.204;2023-04-24T13:56:22;1.50;;;1.20;;
49502;SDS011;35409;48.776;9.204;2023-04-24T13:58:47;1.55;;;1.40;;
49502;SDS011;35409;48.776;9.204;2023-04-24T14:01:13;1.20;;;1.10;;
49502;SDS011;35409;48.776;9.204;2023-04-24T14:03:40;1.63;;;1.40;;
49502;SDS011;35409;48.776;9.204;2023-04-24T14:06:06;2.38;;;1.65;;
49502;SDS011;35409;48.776;9.204;2023-04-24T14:08:32;3.05;;;1.50;;
49502;SDS011;35409;48.776;9.204;2023-04-24T14:10:58;1.40;;;1.30;;
49502;SDS011;35409;48.776;9.204;2023-04-24T14:13:23;1.15;;;1.05;;
49502;SDS011;35409;48.776;9.204;2023-04-24T14:15:49;1.73;;;1.10;;
49502;SDS011;35409;48.776;9.204;2023-04-24T14:18:15;1.55;;;0.88;;
49502;SDS011;35409;48.776;9.204;2023-04-24T14:20:42;2.47;;;1.20;;
49502;SDS011;35409;48.776;9.204;2023-04-24T14:23:07;1.95;;;1.40;;
49502;SDS011;35409;48.776;9.204;2023-04-24T14:25:33;1.45;;;0.95;;
49502;SDS011;35409;48.776;9.204;2023-04-24T14:27:59;3.15;;;1.45;;
49502;SDS011;35409;48.776;9.204;2023-04-24T14:30:24;2.00;;;1.10;;
49502;SDS011;35409;48.776;9.204;2023-04-24T14:32:50;2.35;;;1.00;;
49502;SDS011;35409;48.776;9.204;2023-04-24T14:35:16;0.95;;;0.90;;
49502;SDS011;35409;48.776;9.204;2023-04-24T14:37:41;1.08;;;0.90;;
49502;SDS011;35409;48.776;9.204;2023-04-24T14:40:07;1.83;;;0.88;;
49502;SDS011;35409;48.776;9.204;2023-04-24T14:42:34;2.65;;;1.00;;
49502;SDS011;35409;48.776;9.204;2023-04-24T14:45:00;1.35;;;0.75;;
49502;SDS011;35409;48.776;9.204;2023-04-24T14:47:26;1.67;;;0.85;;
49502;SDS011;35409;48.776;9.204;2023-04-24T14:49:52;1.65;;;0.90;;
49502;SDS011;35409;48.776;9.204;2023-04-24T14:52:18;1.42;;;1.10;;
49502;SDS011;35409;48.776;9.204;2023-04-24T14:54:45;1.60;;;1.10;;
49502;SDS011;35409;48.776;9.204;2023-04-24T14:57:11;1.50;;;1.40;;
49502;SDS011;35409;48.776;9.204;2023-04-24T14:59:37;2.50;;;1.30;;